createdAt,value
2022-08-19T00:02:03.649Z,9.95
2022-08-19T00:04:36.586Z,8.75
2022-08-19T00:07:06.209Z,9.85
2022-08-19T00:09:33.610Z,9.73
2022-08-19T00:12:01.494Z,9.98
2022-08-19T00:14:31.652Z,10.15
2022-08-19T00:16:58.954Z,10.07
2022-08-19T00:19:26.180Z,9.93
2022-08-19T00:21:53.546Z,8.73
2022-08-19T00:24:20.765Z,9.48
2022-08-19T00:26:47.962Z,9.57
2022-08-19T00:29:19.098Z,9.82
2022-08-19T00:31:47.310Z,10.18
2022-08-19T00:34:15.597Z,11.02
2022-08-19T00:36:43.876Z,10.93
2022-08-19T00:39:12.440Z,10.77
2022-08-19T00:44:21.378Z,11.83
2022-08-19T00:46:59.252Z,10.98
2022-08-19T00:49:36.814Z,14.38
2022-08-19T00:52:14.479Z,15.10
2022-08-19T00:54:44.037Z,14.37
2022-08-19T00:57:15.685Z,15.90
2022-08-19T00:59:56.373Z,12.32
2022-08-19T01:02:32.604Z,10.90
2022-08-19T01:05:02.851Z,11.35
2022-08-19T01:07:35.906Z,12.07
2022-08-19T01:10:14.909Z,11.02
2022-08-19T01:12:42.250Z,11.00
2022-08-19T01:15:12.870Z,11.98
2022-08-19T01:17:42.065Z,10.80
2022-08-19T01:20:19.573Z,10.10
2022-08-19T01:22:50.673Z,9.97
2022-08-19T01:25:22.279Z,9.75
2022-08-19T01:27:53.644Z,8.18
2022-08-19T01:30:28.851Z,9.30
2022-08-19T01:32:57.455Z,9.48
2022-08-19T01:35:27.169Z,10.13
2022-08-19T01:38:00.155Z,9.77
2022-08-19T01:40:33.546Z,9.88
2022-08-19T01:43:01.374Z,11.00
2022-08-19T01:45:31.848Z,9.93
2022-08-19T01:48:02.137Z,9.38
2022-08-19T01:50:34.423Z,9.35
2022-08-19T01:53:06.651Z,9.77
2022-08-19T01:55:42.312Z,9.95
2022-08-19T01:58:19.377Z,10.10
2022-08-19T02:00:48.933Z,11.27
2022-08-19T02:03:16.474Z,11.77
2022-08-19T02:05:44.565Z,11.70
2022-08-19T02:08:12.789Z,10.98
2022-08-19T02:10:43.736Z,11.27
2022-08-19T02:13:13.705Z,10.35
2022-08-19T02:15:41.678Z,10.00
2022-08-19T02:18:08.927Z,9.00
2022-08-19T02:20:37.585Z,8.60
2022-08-19T02:23:05.704Z,8.75
2022-08-19T02:25:41.672Z,8.35
2022-08-19T02:28:08.866Z,8.57
2022-08-19T02:30:36.069Z,7.97
2022-08-19T02:33:03.463Z,7.63
2022-08-19T02:35:31.468Z,8.60
2022-08-19T02:38:17.416Z,9.45
2022-08-19T02:41:04.467Z,8.40
2022-08-19T02:43:36.058Z,7.43
2022-08-19T02:46:23.285Z,8.85
2022-08-19T02:48:53.303Z,10.48
2022-08-19T02:51:24.751Z,9.77
2022-08-19T02:53:52.995Z,10.10
2022-08-19T02:56:21.447Z,9.48
2022-08-19T02:58:49.072Z,9.63
2022-08-19T03:01:32.679Z,10.45
2022-08-19T03:04:03.907Z,10.30
2022-08-19T03:06:32.060Z,10.32
2022-08-19T03:08:59.224Z,9.95
2022-08-19T03:11:31.549Z,10.50
2022-08-19T03:14:00.407Z,10.43
2022-08-19T03:16:33.227Z,12.00
2022-08-19T03:19:02.270Z,13.40
2022-08-19T03:21:33.479Z,10.98
2022-08-19T03:24:08.965Z,9.88
2022-08-19T03:26:45.800Z,11.00
2022-08-19T03:29:13.653Z,11.93
2022-08-19T03:31:52.402Z,13.98
2022-08-19T03:34:26.780Z,12.32
2022-08-19T03:36:56.855Z,12.63
2022-08-19T03:39:25.572Z,10.85
2022-08-19T03:42:32.062Z,11.23
2022-08-19T03:44:44.940Z,11.95
2022-08-19T03:47:16.481Z,14.20
2022-08-19T03:49:43.862Z,13.07
2022-08-19T03:52:11.272Z,12.02
2022-08-19T03:54:39.694Z,13.40
2022-08-19T03:57:07.991Z,14.38
2022-08-19T03:59:38.735Z,14.38
2022-08-19T04:02:13.651Z,14.70
2022-08-19T04:04:43.553Z,14.85
2022-08-19T04:07:16.022Z,14.88
2022-08-19T04:09:43.721Z,14.00
2022-08-19T04:12:10.929Z,15.20
2022-08-19T04:14:38.095Z,13.60
2022-08-19T04:17:06.124Z,13.95
2022-08-19T04:19:35.425Z,13.48
2022-08-19T04:22:04.362Z,12.88
2022-08-19T04:24:31.582Z,14.70
2022-08-19T04:27:03.054Z,12.45
2022-08-19T04:29:30.821Z,10.77
2022-08-19T04:31:59.131Z,10.95
2022-08-19T04:34:29.990Z,13.00
2022-08-19T04:36:59.155Z,17.05
2022-08-19T04:39:49.663Z,17.65
2022-08-19T04:42:37.230Z,16.15
2022-08-19T04:45:12.314Z,18.10
2022-08-19T04:47:47.698Z,15.68
2022-08-19T04:50:26.979Z,14.55
2022-08-19T04:52:55.862Z,14.30
2022-08-19T04:55:25.660Z,14.77
2022-08-19T04:57:53.920Z,14.65
2022-08-19T05:00:21.256Z,13.88
2022-08-19T05:02:49.632Z,13.27
2022-08-19T05:05:17.932Z,13.77
2022-08-19T05:07:45.078Z,13.02
2022-08-19T05:10:13.092Z,15.50
2022-08-19T05:12:40.334Z,16.63
2022-08-19T05:15:08.837Z,19.70
2022-08-19T05:17:39.054Z,22.83
2022-08-19T05:20:37.381Z,21.90
2022-08-19T05:23:13.366Z,20.10
2022-08-19T05:25:53.196Z,18.92
2022-08-19T05:28:21.098Z,16.17
2022-08-19T05:30:50.826Z,13.02
2022-08-19T05:33:19.079Z,12.60
2022-08-19T05:35:46.577Z,10.23
2022-08-19T05:40:41.891Z,11.73
2022-08-19T05:43:09.528Z,14.95
2022-08-19T05:45:42.537Z,16.60
2022-08-19T05:48:14.240Z,19.85
2022-08-19T05:50:45.662Z,20.17
2022-08-19T05:53:14.700Z,19.05
2022-08-19T05:55:42.609Z,19.50
2022-08-19T05:58:11.345Z,16.88
2022-08-19T06:00:40.374Z,16.85
2022-08-19T06:03:11.795Z,14.70
2022-08-19T06:05:49.563Z,14.63
2022-08-19T06:08:20.527Z,17.38
2022-08-19T06:11:14.184Z,14.80
2022-08-19T06:13:41.570Z,13.30
2022-08-19T06:18:35.728Z,13.68
2022-08-19T06:21:04.551Z,12.88
2022-08-19T06:23:31.825Z,10.13
2022-08-19T06:25:58.934Z,10.68
2022-08-19T06:28:26.110Z,11.45
2022-08-19T06:35:47.409Z,10.82
2022-08-19T06:45:39.433Z,7.15
2022-08-19T06:48:07.741Z,6.63
2022-08-19T06:50:34.977Z,6.80
2022-08-19T06:53:06.608Z,6.03
2022-08-19T07:00:33.142Z,6.18
2022-08-19T07:03:04.562Z,5.57
2022-08-19T07:05:45.773Z,5.50
2022-08-19T07:08:14.293Z,5.55
2022-08-19T07:10:46.149Z,5.07
2022-08-19T07:13:13.374Z,6.05
2022-08-19T07:15:41.037Z,6.28
2022-08-19T07:18:08.180Z,4.88
2022-08-19T07:20:42.233Z,5.10
2022-08-19T07:23:15.797Z,4.82
2022-08-19T07:25:53.127Z,4.78
2022-08-19T07:28:24.209Z,5.93
2022-08-19T07:30:53.019Z,5.30
2022-08-19T07:33:20.644Z,5.63
2022-08-19T07:38:16.192Z,5.60
2022-08-19T07:40:46.439Z,5.68
2022-08-19T07:43:17.047Z,5.50
2022-08-19T07:45:47.339Z,5.18
2022-08-19T07:48:14.836Z,5.30
2022-08-19T07:50:41.983Z,4.78
2022-08-19T07:53:09.165Z,5.00
2022-08-19T07:55:42.204Z,5.68
2022-08-19T07:58:14.454Z,5.45
2022-08-19T08:00:43.679Z,4.80
2022-08-19T08:03:11.606Z,5.55
2022-08-19T08:08:44.396Z,5.50
2022-08-19T08:11:15.492Z,5.68
2022-08-19T08:13:43.418Z,6.10
2022-08-19T08:16:14.159Z,6.25
2022-08-19T08:18:50.598Z,5.70
2022-08-19T08:21:18.145Z,5.25
2022-08-19T08:23:45.386Z,5.65
2022-08-19T08:26:14.680Z,5.53
2022-08-19T08:28:43.207Z,6.25
2022-08-19T08:31:15.224Z,6.03
2022-08-19T08:33:42.678Z,5.93
2022-08-19T08:36:11.213Z,5.68
2022-08-19T08:38:40.920Z,6.28
2022-08-19T08:41:37.993Z,6.32
2022-08-19T08:44:05.194Z,5.90
2022-08-19T08:46:59.392Z,5.73
2022-08-19T08:50:11.452Z,5.75
2022-08-19T08:52:47.373Z,5.93
2022-08-19T08:55:27.328Z,5.78
2022-08-19T08:58:16.388Z,5.35
2022-08-19T09:00:50.264Z,5.93
2022-08-19T09:03:27.033Z,5.45
2022-08-19T09:06:19.755Z,6.32
2022-08-19T09:09:24.430Z,5.68
2022-08-19T09:12:03.769Z,5.38
2022-08-19T09:14:52.208Z,5.80
2022-08-19T09:17:31.234Z,5.03
2022-08-19T09:20:09.173Z,5.78
2022-08-19T09:22:44.377Z,6.00
2022-08-19T09:25:17.327Z,5.80
2022-08-19T09:28:02.711Z,4.78
2022-08-19T09:30:35.236Z,5.25
2022-08-19T09:33:02.454Z,5.25
2022-08-19T09:35:30.821Z,5.07
2022-08-19T09:38:00.174Z,5.82
2022-08-19T09:40:30.236Z,5.95
2022-08-19T09:43:00.935Z,7.10
2022-08-19T09:45:29.100Z,5.47
2022-08-19T09:47:57.413Z,6.38
2022-08-19T09:50:25.142Z,4.82
2022-08-19T09:52:57.277Z,5.07
2022-08-19T09:55:31.501Z,4.78
2022-08-19T09:58:01.568Z,5.68
2022-08-19T10:00:30.547Z,4.25
2022-08-19T10:02:58.000Z,5.15
2022-08-19T10:05:43.891Z,5.32
2022-08-19T10:08:13.449Z,5.25
2022-08-19T10:10:46.880Z,5.35
2022-08-19T10:13:17.712Z,5.30
2022-08-19T10:15:47.725Z,5.20
2022-08-19T10:18:18.432Z,4.53
2022-08-19T10:20:51.559Z,5.20
2022-08-19T10:23:21.447Z,5.00
2022-08-19T10:25:49.982Z,5.72
2022-08-19T10:28:19.541Z,5.28
2022-08-19T10:30:47.972Z,5.40
2022-08-19T16:27:03.988Z,4.68
2022-08-19T16:29:34.431Z,4.55
2022-08-19T16:32:10.704Z,4.38
2022-08-19T16:34:40.783Z,6.25
2022-08-19T16:37:09.467Z,4.50
2022-08-19T16:39:37.585Z,4.45
2022-08-19T16:42:07.680Z,4.05
2022-08-19T16:44:38.635Z,4.07
2022-08-19T16:47:06.095Z,5.10
2022-08-19T16:49:53.620Z,5.10
2022-08-19T16:52:22.500Z,5.20
2022-08-19T16:54:49.645Z,4.35
2022-08-19T16:57:17.826Z,5.32
2022-08-19T16:59:48.853Z,4.90
2022-08-19T17:02:19.571Z,4.15
2022-08-19T17:04:57.539Z,4.35
2022-08-19T17:07:33.074Z,4.68
2022-08-19T17:10:03.477Z,4.43
2022-08-19T17:12:32.436Z,4.78
2022-08-19T17:15:01.920Z,5.07
2022-08-19T17:17:31.182Z,5.18
2022-08-19T17:20:00.581Z,4.82
2022-08-19T17:22:29.029Z,5.15
2022-08-19T17:24:58.418Z,4.90
2022-08-19T17:27:32.290Z,4.40
2022-08-19T17:30:01.953Z,4.75
2022-08-19T17:32:29.479Z,4.90
2022-08-19T17:34:56.586Z,4.80
2022-08-19T17:37:23.862Z,4.88
2022-08-19T17:39:51.072Z,5.83
2022-08-19T17:42:18.765Z,5.05
2022-08-19T17:44:50.900Z,5.43
2022-08-19T17:47:18.825Z,6.28
2022-08-19T17:49:46.205Z,4.60
2022-08-19T17:52:13.728Z,4.70
2022-08-19T17:54:40.887Z,5.30
2022-08-19T17:57:08.943Z,4.72
2022-08-19T17:59:39.005Z,6.15
2022-08-19T18:02:10.072Z,5.30
2022-08-19T18:04:38.336Z,5.95
2022-08-19T18:09:42.307Z,5.95
2022-08-19T18:12:12.517Z,5.75
2022-08-19T18:14:41.460Z,5.68
2022-08-19T18:17:13.067Z,5.63
2022-08-19T18:19:43.390Z,8.43
2022-08-19T18:22:35.748Z,6.72
2022-08-19T18:25:22.040Z,5.50
2022-08-19T18:27:51.195Z,5.80
2022-08-19T18:30:19.805Z,6.97
2022-08-19T18:32:51.730Z,7.28
2022-08-19T18:35:29.281Z,6.18
2022-08-19T18:38:22.169Z,5.43
2022-08-19T18:41:07.972Z,5.63
2022-08-19T18:43:53.864Z,6.35
2022-08-19T18:46:39.745Z,7.72
2022-08-19T18:49:09.803Z,6.55
2022-08-19T18:51:36.998Z,6.28
2022-08-19T18:54:04.454Z,6.57
2022-08-19T18:56:31.764Z,5.72
2022-08-19T18:59:00.939Z,8.10
2022-08-19T19:01:33.137Z,7.03
2022-08-19T19:04:05.309Z,6.80
2022-08-19T19:06:39.093Z,6.95
2022-08-19T19:09:18.993Z,7.20
2022-08-19T19:11:51.363Z,6.97
2022-08-19T19:14:47.650Z,6.70
2022-08-19T19:17:14.502Z,6.45
2022-08-19T19:19:43.327Z,10.07
2022-08-19T19:22:18.415Z,9.13
2022-08-19T19:24:46.020Z,7.90
2022-08-19T19:27:17.864Z,8.20
2022-08-19T19:29:49.683Z,9.27
2022-08-19T19:32:33.057Z,11.05
2022-08-19T19:35:05.966Z,9.38
2022-08-19T19:37:33.699Z,8.88
2022-08-19T19:40:01.067Z,9.85
2022-08-19T19:42:28.327Z,9.30
2022-08-19T19:44:55.835Z,8.73
2022-08-19T19:47:23.721Z,8.00
2022-08-19T19:57:36.786Z,6.55
2022-08-19T20:00:07.626Z,6.72
2022-08-19T20:02:34.749Z,6.40
2022-08-19T20:05:01.905Z,6.30
2022-08-19T20:07:47.832Z,7.15
2022-08-19T20:10:15.217Z,7.25
2022-08-19T20:12:42.574Z,7.50
2022-08-19T20:15:10.040Z,7.22
2022-08-19T20:17:42.048Z,7.03
2022-08-19T20:20:13.272Z,6.72
2022-08-19T20:22:42.508Z,7.82
2022-08-19T20:25:15.677Z,8.18
2022-08-19T20:27:43.526Z,7.78
2022-08-19T20:32:48.744Z,8.43
2022-08-19T20:35:19.825Z,8.57
2022-08-19T20:37:47.571Z,11.98
2022-08-19T20:40:20.080Z,8.75
2022-08-19T20:42:49.958Z,7.85
2022-08-19T20:45:33.118Z,8.48
2022-08-19T20:48:04.117Z,8.88
2022-08-19T20:50:34.580Z,8.60
2022-08-19T20:53:16.865Z,8.80
2022-08-19T20:55:51.108Z,9.27
2022-08-19T20:58:21.289Z,10.10
2022-08-19T21:00:51.025Z,9.60
2022-08-19T21:03:25.771Z,9.57
2022-08-19T21:05:55.021Z,8.52
2022-08-19T21:08:24.014Z,8.85
2022-08-19T21:10:52.543Z,8.43
2022-08-19T21:13:21.835Z,7.93
2022-08-19T21:15:49.822Z,7.75
2022-08-19T21:18:20.240Z,8.45
2022-08-19T21:20:48.482Z,7.78
2022-08-19T21:23:20.461Z,8.00
2022-08-19T21:25:54.521Z,7.22
2022-08-19T21:28:30.001Z,7.97
2022-08-19T21:31:06.156Z,8.00
2022-08-19T21:33:33.636Z,8.07
2022-08-19T21:36:02.405Z,8.73
2022-08-19T21:38:29.795Z,9.10
2022-08-19T21:40:57.153Z,9.07
2022-08-19T21:43:24.404Z,8.93
2022-08-19T21:45:51.560Z,10.05
2022-08-19T21:48:19.201Z,9.63
2022-08-19T21:50:48.442Z,10.32
2022-08-19T21:53:17.685Z,9.05
2022-08-19T21:55:48.102Z,7.97
2022-08-19T21:58:28.105Z,9.27
2022-08-19T22:01:05.167Z,9.27
2022-08-19T22:03:35.323Z,8.88
2022-08-19T22:06:02.553Z,16.13
2022-08-19T22:08:30.754Z,10.35
2022-08-19T22:11:00.858Z,10.80
2022-08-19T22:13:30.389Z,11.70
2022-08-19T22:15:57.469Z,9.50
2022-08-19T22:18:24.750Z,10.43
2022-08-19T22:20:51.906Z,9.20
2022-08-19T22:23:19.108Z,11.48
2022-08-19T22:25:47.374Z,10.98
2022-08-19T22:28:19.064Z,9.95
2022-08-19T22:30:55.478Z,11.23
2022-08-19T22:33:25.143Z,9.20
2022-08-19T22:35:53.094Z,8.88
2022-08-19T22:38:21.538Z,9.80
2022-08-19T22:40:50.825Z,11.77
2022-08-19T22:43:22.382Z,11.80
2022-08-19T22:45:52.529Z,10.57
2022-08-19T22:48:23.842Z,10.80
2022-08-19T22:51:11.393Z,9.68
2022-08-19T22:53:44.351Z,9.40
2022-08-19T22:56:15.437Z,10.13
2022-08-19T22:58:43.937Z,9.35
2022-08-19T23:01:24.897Z,10.25
2022-08-19T23:03:55.925Z,10.00
2022-08-19T23:06:23.189Z,9.10
2022-08-19T23:08:56.875Z,8.30
2022-08-19T23:11:24.024Z,7.93
2022-08-19T23:13:51.324Z,8.52
2022-08-19T23:16:18.540Z,8.35
2022-08-19T23:18:45.754Z,8.50
2022-08-19T23:21:12.908Z,8.38
2022-08-19T23:23:40.419Z,8.95
2022-08-19T23:26:11.690Z,9.77
2022-08-19T23:28:57.759Z,8.38
2022-08-19T23:31:29.111Z,8.38
2022-08-19T23:33:56.752Z,8.45
2022-08-19T23:36:24.166Z,10.13
2022-08-19T23:38:51.721Z,10.00
2022-08-19T23:41:22.545Z,9.68
2022-08-19T23:43:51.388Z,10.52
2022-08-19T23:46:28.015Z,10.40
2022-08-19T23:48:56.734Z,9.75
2022-08-19T23:51:25.982Z,9.50
2022-08-19T23:53:53.246Z,9.20
2022-08-19T23:56:20.834Z,10.45
2022-08-19T23:58:48.451Z,9.40
